Time;durP1;ratioP1;P1;durP2;ratioP2;P2;SDS_P1;SDS_P2;PMS_P1;PMS_P2;Temp;Humidity;BMP_temperature;BMP_pressure;BME280_temperature;BME280_humidity;BME280_pressure;Samples;Min_cycle;Max_cycle;Signal;HPM_P1;HPM_P2
2022/07/29 00:00:05;;;;;;;3.97;1.40;;;19.90;99.90;;;;;;5061748;28;20411;-60
2022/07/29 00:02:31;;;;;;;3.75;1.80;;;19.90;99.90;;;;;;5061745;28;20036;-61
2022/07/29 00:04:58;;;;;;;6.75;1.60;;;20.00;99.90;;;;;;5078071;28;20083;-61
2022/07/29 00:07:24;;;;;;;5.15;1.50;;;19.90;99.90;;;;;;5061494;28;20360;-61
2022/07/29 00:09:50;;;;;;;8.13;1.83;;;19.90;99.90;;;;;;5078721;28;20039;-61
2022/07/29 00:12:16;;;;;;;5.93;2.00;;;19.90;99.90;;;;;;5077986;28;20040;-61
2022/07/29 00:14:42;;;;;;;5.47;1.60;;;19.80;99.90;;;;;;5078703;28;20040;-60
2022/07/29 00:17:08;;;;;;;6.03;1.60;;;19.80;99.90;;;;;;5077800;28;20029;-60
2022/07/29 00:19:34;;;;;;;3.33;1.85;;;19.70;99.90;;;;;;5077915;28;20024;-60
2022/07/29 00:22:00;;;;;;;5.20;1.70;;;19.70;99.90;;;;;;5078437;28;20031;-60
2022/07/29 00:24:26;;;;;;;3.40;2.00;;;19.70;99.90;;;;;;5078525;28;20052;-60
2022/07/29 00:26:52;;;;;;;7.38;1.60;;;19.70;99.90;;;;;;5061050;28;20106;-61
2022/07/29 00:29:18;;;;;;;4.38;1.98;;;19.70;99.90;;;;;;5078521;28;20040;-59
2022/07/29 00:31:44;;;;;;;4.95;2.10;;;19.70;99.90;;;;;;5060974;28;20300;-61
2022/07/29 00:35:43;;;;;;;4.45;2.17;;;19.60;99.90;;;;;;5078376;28;20060;-60
2022/07/29 00:36:55;;;;;;;3.38;1.70;;;19.50;99.90;;;;;;5077880;28;20037;-60
2022/07/29 00:39:21;;;;;;;3.97;1.88;;;19.50;99.90;;;;;;5078215;28;20116;-60
2022/07/29 00:41:47;;;;;;;2.88;1.80;;;19.50;99.90;;;;;;5077476;28;20048;-60
2022/07/29 00:44:13;;;;;;;3.85;1.63;;;19.50;99.90;;;;;;5060748;28;20119;-60
2022/07/29 00:46:38;;;;;;;2.75;1.90;;;19.50;99.90;;;;;;5061110;28;20111;-60
2022/07/29 00:49:04;;;;;;;4.38;1.77;;;19.40;99.90;;;;;;5061006;28;20094;-60
2022/07/29 00:51:31;;;;;;;2.38;1.55;;;19.50;99.90;;;;;;5077173;28;20047;-60
2022/07/29 00:53:57;;;;;;;3.97;1.80;;;19.50;99.90;;;;;;5078068;28;20060;-60
2022/07/29 00:56:23;;;;;;;3.03;1.52;;;19.40;99.90;;;;;;5077672;28;20080;-61
2022/07/29 00:58:51;;;;;;;6.18;1.25;;;19.40;99.90;;;;;;5077137;28;20388;-61
2022/07/29 01:01:17;;;;;;;2.08;1.38;;;19.30;99.90;;;;;;5060363;28;20444;-60
2022/07/29 01:03:43;;;;;;;2.65;1.60;;;19.30;99.90;;;;;;5060835;28;20128;-60
2022/07/29 01:06:09;;;;;;;2.35;1.42;;;19.40;99.90;;;;;;5077526;28;20058;-60
2022/07/29 01:08:36;;;;;;;4.15;1.60;;;19.40;99.90;;;;;;5077025;28;20120;-60
2022/07/29 01:11:02;;;;;;;7.50;1.60;;;19.50;99.90;;;;;;5060169;28;20037;-60
2022/07/29 01:13:30;;;;;;;9.38;1.90;;;19.50;99.90;;;;;;5077537;28;20024;-59
2022/07/29 01:16:25;;;;;;;2.38;1.30;;;19.50;99.90;;;;;;5077362;28;20111;-59
2022/07/29 01:19:00;;;;;;;3.38;1.70;;;19.50;99.90;;;;;;5077782;28;20025;-59
2022/07/29 01:21:49;;;;;;;4.78;1.70;;;19.50;99.90;;;;;;5077480;28;20270;-60
2022/07/29 01:24:24;;;;;;;3.75;1.60;;;19.50;99.90;;;;;;5076655;28;20028;-60
2022/07/29 01:27:14;;;;;;;4.85;1.60;;;19.50;99.90;;;;;;5077293;28;20043;-60
2022/07/29 01:29:45;;;;;;;2.50;1.45;;;19.40;99.90;;;;;;5077272;28;20029;-60
2022/07/29 01:32:14;;;;;;;3.80;1.40;;;19.50;99.90;;;;;;5059926;28;20028;-60
2022/07/29 01:35:03;;;;;;;2.92;1.70;;;19.40;99.90;;;;;;5077281;28;20036;-60
2022/07/29 01:37:55;;;;;;;5.95;2.00;;;19.50;99.90;;;;;;5077767;28;20108;-60
2022/07/29 01:40:24;;;;;;;5.15;1.67;;;19.40;99.90;;;;;;5077171;28;20098;-60
2022/07/29 01:42:56;;;;;;;6.03;1.60;;;19.40;99.90;;;;;;5077643;28;20021;-60
2022/07/29 01:45:46;;;;;;;3.17;1.70;;;19.40;99.90;;;;;;5076398;28;20024;-60
2022/07/29 01:48:21;;;;;;;2.50;1.70;;;19.40;99.90;;;;;;5077076;28;20048;-59
2022/07/29 01:50:56;;;;;;;4.18;1.67;;;19.30;99.90;;;;;;5077065;28;20329;-59
2022/07/29 01:54:00;;;;;;;3.05;1.55;;;19.20;99.90;;;;;;5076413;28;20123;-60
2022/07/29 01:56:29;;;;;;;2.92;1.92;;;19.20;99.90;;;;;;5075246;28;20056;-60
2022/07/29 01:58:56;;;;;;;6.68;2.00;;;19.10;99.90;;;;;;5076637;28;20389;-60
2022/07/29 02:01:23;;;;;;;4.32;1.88;;;19.00;99.90;;;;;;5076426;28;20040;-60
2022/07/29 02:03:52;;;;;;;5.40;1.50;;;19.00;99.90;;;;;;5076938;28;20036;-60
2022/07/29 02:06:20;;;;;;;3.33;1.60;;;18.90;99.90;;;;;;5076404;28;20043;-60
2022/07/29 02:08:47;;;;;;;5.13;1.80;;;18.90;99.90;;;;;;5059455;28;20127;-60
2022/07/29 02:11:13;;;;;;;2.90;1.75;;;18.90;99.90;;;;;;5059332;28;20037;-60
2022/07/29 02:13:40;;;;;;;3.85;1.40;;;18.80;99.90;;;;;;5076112;28;20047;-60
2022/07/29 02:16:09;;;;;;;2.85;1.55;;;18.80;99.90;;;;;;5077035;28;20055;-60
2022/07/29 02:18:37;;;;;;;4.35;1.60;;;18.70;99.90;;;;;;5076604;28;20032;-60
2022/07/29 02:21:03;;;;;;;1.95;1.50;;;18.70;99.90;;;;;;5076732;28;20031;-62
2022/07/29 02:23:30;;;;;;;3.35;1.50;;;18.60;99.90;;;;;;5076732;28;20040;-60
2022/07/29 02:25:57;;;;;;;4.22;1.50;;;18.60;99.90;;;;;;5075957;28;20054;-60
2022/07/29 02:28:27;;;;;;;4.18;1.63;;;18.50;99.90;;;;;;5076605;28;20052;-60
2022/07/29 02:30:59;;;;;;;2.33;1.58;;;18.50;99.90;;;;;;5075830;28;20040;-60
2022/07/29 02:33:26;;;;;;;5.10;1.87;;;18.50;99.90;;;;;;5075859;28;20174;-60
2022/07/29 02:35:53;;;;;;;3.00;1.40;;;18.40;99.90;;;;;;5076243;28;20302;-61
2022/07/29 02:41:13;;;;;;;4.15;1.48;;;18.40;99.90;;;;;;5076517;28;20033;-62
2022/07/29 02:43:43;;;;;;;2.75;1.45;;;18.30;99.90;;;;;;5076537;28;20039;-61
2022/07/29 02:46:14;;;;;;;4.00;1.30;;;18.20;99.90;;;;;;5076444;28;20036;-61
2022/07/29 02:48:53;;;;;;;2.42;1.50;;;18.30;99.90;;;;;;5076237;28;20305;-61
2022/07/29 02:51:27;;;;;;;3.42;1.30;;;18.20;99.90;;;;;;5076400;28;20407;-60
2022/07/29 02:53:56;;;;;;;3.17;1.52;;;18.20;99.90;;;;;;5075681;28;20036;-60
2022/07/29 02:56:27;;;;;;;6.00;1.70;;;18.20;99.90;;;;;;5075465;28;20049;-60
2022/07/29 02:59:02;;;;;;;3.45;1.50;;;18.10;99.90;;;;;;5076433;28;20028;-61
2022/07/29 03:01:32;;;;;;;3.15;1.55;;;18.20;99.90;;;;;;5076348;28;20032;-60
2022/07/29 03:04:02;;;;;;;2.10;1.48;;;18.20;99.90;;;;;;5076386;28;20142;-60
2022/07/29 03:06:30;;;;;;;3.83;1.30;;;18.10;99.90;;;;;;5080235;28;20040;-60
2022/07/29 03:08:58;;;;;;;1.60;1.40;;;18.20;99.90;;;;;;5079215;28;20036;-60
2022/07/29 03:11:25;;;;;;;2.90;1.30;;;18.20;99.90;;;;;;5062469;28;20293;-60
2022/07/29 03:13:51;;;;;;;3.65;1.45;;;18.00;99.90;;;;;;5079184;28;20344;-60
2022/07/29 03:16:19;;;;;;;2.25;1.30;;;18.00;99.90;;;;;;5078976;28;20056;-61
2022/07/29 03:18:46;;;;;;;2.47;1.35;;;18.00;99.90;;;;;;5062400;28;20036;-60
2022/07/29 03:21:12;;;;;;;2.72;1.58;;;17.90;99.90;;;;;;5080007;28;20029;-60
2022/07/29 03:23:44;;;;;;;3.78;1.58;;;17.90;99.90;;;;;;5080182;28;20079;-60
2022/07/29 03:26:10;;;;;;;1.75;1.30;;;17.80;99.90;;;;;;5079108;28;20274;-60
2022/07/29 03:28:36;;;;;;;3.78;1.40;;;17.80;99.90;;;;;;5029279;28;20032;-60
2022/07/29 03:31:01;;;;;;;4.57;1.65;;;17.70;99.90;;;;;;5079187;28;20400;-60
2022/07/29 03:33:28;;;;;;;2.78;1.40;;;17.60;99.90;;;;;;5045569;28;20028;-60
2022/07/29 03:35:54;;;;;;;3.38;1.73;;;17.70;99.90;;;;;;5045803;28;20317;-60
2022/07/29 03:38:24;;;;;;;3.55;1.55;;;17.60;99.90;;;;;;5061922;28;20071;-60
2022/07/29 03:40:54;;;;;;;2.95;1.30;;;17.50;99.90;;;;;;5079137;28;20024;-60
2022/07/29 03:43:22;;;;;;;2.17;1.40;;;17.50;99.90;;;;;;5078567;28;20029;-61
2022/07/29 03:45:53;;;;;;;2.80;1.30;;;17.50;99.90;;;;;;5061840;28;20312;-60
2022/07/29 03:48:21;;;;;;;2.97;1.40;;;17.50;99.90;;;;;;5079000;28;20020;-60
2022/07/29 03:50:49;;;;;;;2.20;1.30;;;17.50;99.90;;;;;;5079135;28;20032;-60
2022/07/29 03:53:15;;;;;;;3.05;1.60;;;17.40;99.90;;;;;;5079109;28;20045;-60
2022/07/29 03:55:44;;;;;;;3.58;1.48;;;17.30;99.90;;;;;;5078340;28;20044;-60
2022/07/29 03:58:12;;;;;;;5.88;1.48;;;17.30;99.90;;;;;;5078163;28;20068;-60
2022/07/29 04:00:38;;;;;;;3.78;1.30;;;17.30;99.90;;;;;;5061487;28;20028;-60
2022/07/29 04:03:05;;;;;;;2.75;1.58;;;17.30;99.90;;;;;;5078680;28;20400;-61
2022/07/29 04:05:31;;;;;;;2.33;1.50;;;17.30;99.90;;;;;;5078150;28;20036;-60
2022/07/29 04:07:57;;;;;;;6.05;1.70;;;17.30;99.90;;;;;;5061211;28;20423;-60
2022/07/29 04:10:25;;;;;;;3.10;1.48;;;17.30;99.90;;;;;;5077845;28;20028;-61
2022/07/29 04:12:51;;;;;;;2.25;1.30;;;17.20;99.90;;;;;;5078498;28;20032;-60
2022/07/29 04:15:17;;;;;;;2.80;1.20;;;17.30;99.90;;;;;;5078213;28;20039;-60
2022/07/29 04:17:42;;;;;;;2.85;1.60;;;17.20;99.90;;;;;;5077675;28;20063;-61
2022/07/29 04:20:09;;;;;;;3.88;1.60;;;17.20;99.90;;;;;;5077659;28;20506;-61
2022/07/29 04:22:35;;;;;;;2.70;1.50;;;17.20;99.90;;;;;;5078296;28;20032;-61
2022/07/29 04:25:01;;;;;;;5.65;1.80;;;17.20;99.90;;;;;;5078581;28;20020;-61
2022/07/29 04:27:26;;;;;;;4.35;1.60;;;17.20;99.90;;;;;;5077605;28;20037;-61
2022/07/29 04:29:52;;;;;;;2.88;1.40;;;17.20;99.90;;;;;;5077634;28;20039;-59
2022/07/29 04:32:18;;;;;;;4.75;1.83;;;17.20;99.90;;;;;;5077674;28;20037;-60
2022/07/29 04:34:46;;;;;;;4.15;1.70;;;17.20;99.90;;;;;;5078428;28;20056;-60
2022/07/29 04:37:12;;;;;;;2.20;1.48;;;17.20;99.90;;;;;;5077427;28;20297;-60
2022/07/29 04:39:38;;;;;;;3.58;1.95;;;17.20;99.90;;;;;;5078175;28;20029;-60
2022/07/29 04:42:04;;;;;;;8.05;1.95;;;17.20;99.90;;;;;;5078162;28;20274;-60
2022/07/29 04:44:29;;;;;;;2.85;1.70;;;17.20;99.90;;;;;;5060660;28;20024;-60
2022/07/29 04:46:56;;;;;;;3.17;1.50;;;17.20;99.90;;;;;;5060795;28;20351;-60
2022/07/29 04:49:22;;;;;;;4.85;1.70;;;17.20;99.90;;;;;;5077943;28;20048;-60
2022/07/29 04:51:48;;;;;;;4.43;2.08;;;17.20;99.90;;;;;;5077967;28;20307;-60
2022/07/29 04:54:13;;;;;;;3.78;1.85;;;17.20;99.90;;;;;;5077434;28;20445;-60
2022/07/29 04:56:39;;;;;;;3.83;1.52;;;17.30;99.90;;;;;;5076944;28;20095;-61
2022/07/29 04:59:05;;;;;;;4.05;1.70;;;17.30;99.90;;;;;;5077808;28;20388;-60
2022/07/29 05:01:31;;;;;;;4.18;2.13;;;17.30;99.90;;;;;;5077692;28;20024;-61
2022/07/29 05:03:56;;;;;;;2.88;2.10;;;17.50;99.90;;;;;;5077615;28;20133;-61
2022/07/29 05:06:22;;;;;;;3.55;2.00;;;17.50;99.90;;;;;;5060379;28;20056;-61
2022/07/29 05:08:48;;;;;;;3.78;2.00;;;17.60;99.90;;;;;;5076859;28;20040;-60
2022/07/29 05:11:14;;;;;;;3.13;1.95;;;17.70;99.90;;;;;;5078145;28;20040;-60
2022/07/29 05:13:40;;;;;;;2.38;1.65;;;17.80;99.90;;;;;;5060474;28;20028;-61
2022/07/29 05:16:07;;;;;;;2.72;1.70;;;17.80;99.90;;;;;;5060073;28;20036;-59
2022/07/29 05:18:33;;;;;;;5.20;1.80;;;17.80;99.90;;;;;;5076708;28;20115;-61
2022/07/29 05:20:59;;;;;;;2.90;2.00;;;17.90;99.90;;;;;;5076763;28;20114;-61
2022/07/29 05:23:24;;;;;;;3.28;2.00;;;17.80;99.90;;;;;;5077321;28;20025;-60
2022/07/29 05:25:50;;;;;;;4.32;2.30;;;17.70;99.90;;;;;;5077251;28;20033;-60
2022/07/29 05:28:16;;;;;;;3.50;2.05;;;17.70;99.90;;;;;;5075824;28;20035;-61
2022/07/29 05:30:44;;;;;;;2.50;1.73;;;17.70;99.90;;;;;;5076384;28;20043;-61
2022/07/29 05:33:10;;;;;;;3.20;2.03;;;17.70;99.90;;;;;;5076591;28;20028;-61
2022/07/29 05:35:37;;;;;;;2.67;1.80;;;17.70;99.90;;;;;;5059824;28;20060;-60
2022/07/29 05:38:03;;;;;;;4.43;1.88;;;17.70;99.90;;;;;;5043219;28;20032;-60
2022/07/29 05:40:29;;;;;;;2.28;2.03;;;17.80;99.90;;;;;;5076461;28;20028;-61
2022/07/29 05:42:56;;;;;;;5.93;1.90;;;17.90;99.90;;;;;;5076311;28;20312;-61
2022/07/29 05:45:23;;;;;;;2.90;1.80;;;18.00;99.90;;;;;;5077097;28;20029;-60
2022/07/29 05:47:48;;;;;;;3.67;2.25;;;18.20;99.90;;;;;;5076283;28;20036;-60
2022/07/29 05:50:14;;;;;;;3.70;2.10;;;18.50;99.90;;;;;;5076975;28;20042;-60
2022/07/29 05:52:40;;;;;;;3.50;2.10;;;18.50;99.90;;;;;;5076326;28;20400;-60
2022/07/29 05:55:06;;;;;;;2.33;1.90;;;18.60;99.90;;;;;;5042986;28;20036;-61
2022/07/29 05:57:32;;;;;;;5.65;2.08;;;18.60;99.90;;;;;;5076651;28;20320;-60
2022/07/29 05:59:58;;;;;;;6.53;2.15;;;18.50;99.90;;;;;;5076173;28;20292;-60
2022/07/29 06:02:25;;;;;;;4.95;2.10;;;18.60;99.90;;;;;;5077095;28;20040;-60
2022/07/29 06:04:51;;;;;;;5.72;2.38;;;18.70;99.90;;;;;;5076170;28;20029;-60
2022/07/29 06:07:16;;;;;;;5.28;2.38;;;18.80;99.90;;;;;;5076073;28;20038;-61
2022/07/29 06:09:43;;;;;;;3.55;1.85;;;18.90;99.90;;;;;;5076753;28;20064;-60
2022/07/29 06:12:09;;;;;;;5.00;2.03;;;19.00;99.90;;;;;;5076040;28;20063;-61
2022/07/29 06:14:35;;;;;;;3.45;2.50;;;19.10;99.90;;;;;;5076033;28;20404;-60
2022/07/29 06:17:01;;;;;;;3.50;2.50;;;19.30;99.90;;;;;;5075881;28;20059;-61
2022/07/29 06:19:27;;;;;;;3.75;1.92;;;19.40;99.90;;;;;;5076658;28;20070;-61
2022/07/29 06:21:53;;;;;;;5.30;1.83;;;19.50;99.90;;;;;;5042580;28;20400;-60
2022/07/29 06:24:19;;;;;;;5.88;2.20;;;19.50;99.90;;;;;;5075903;28;20119;-60
2022/07/29 06:26:44;;;;;;;3.65;2.05;;;19.50;99.90;;;;;;5075891;28;20124;-60
2022/07/29 06:29:11;;;;;;;7.35;2.42;;;19.50;99.90;;;;;;5075787;28;20419;-61
2022/07/29 06:31:39;;;;;;;3.90;2.30;;;19.40;99.90;;;;;;5059182;28;20089;-62
2022/07/29 06:34:05;;;;;;;4.28;1.60;;;19.30;99.90;;;;;;5076518;28;20089;-58
2022/07/29 06:36:35;;;;;;;4.90;2.03;;;19.50;99.90;;;;;;5076427;28;20029;-60
2022/07/29 06:39:01;;;;;;;5.03;2.35;;;19.50;99.90;;;;;;5078119;28;20035;-60
2022/07/29 06:41:26;;;;;;;2.63;2.00;;;19.40;99.90;;;;;;5079822;28;20412;-60
2022/07/29 06:43:52;;;;;;;4.13;2.65;;;19.30;99.90;;;;;;5080737;28;20427;-60
2022/07/29 06:46:19;;;;;;;4.25;2.50;;;19.20;99.90;;;;;;5080317;28;20068;-60
2022/07/29 06:48:47;;;;;;;5.68;2.70;;;19.20;99.90;;;;;;5080305;28;20024;-60
2022/07/29 06:51:13;;;;;;;4.80;2.30;;;19.10;99.90;;;;;;5080340;28;20066;-61
2022/07/29 06:53:39;;;;;;;5.15;2.35;;;19.20;99.90;;;;;;5079418;28;20328;-60
2022/07/29 06:56:08;;;;;;;4.43;2.10;;;19.30;99.90;;;;;;5079110;28;20400;-60
2022/07/29 06:58:34;;;;;;;2.78;2.30;;;19.40;99.90;;;;;;5062748;28;20036;-60
2022/07/29 07:01:05;;;;;;;4.00;2.83;;;19.40;99.90;;;;;;5080079;28;20043;-60
2022/07/29 07:03:32;;;;;;;5.40;2.78;;;19.60;99.90;;;;;;5079307;28;20079;-60
2022/07/29 07:05:58;;;;;;;3.72;2.40;;;19.60;99.90;;;;;;5062607;28;20078;-60
2022/07/29 07:08:24;;;;;;;3.05;2.13;;;19.70;99.90;;;;;;5079995;28;20036;-60
2022/07/29 07:10:50;;;;;;;3.35;2.15;;;19.70;99.90;;;;;;5080528;28;20044;-60
2022/07/29 07:13:17;;;;;;;3.92;2.28;;;19.80;99.90;;;;;;5080585;28;20441;-62
2022/07/29 07:15:43;;;;;;;3.53;1.98;;;19.80;99.90;;;;;;5079869;28;20158;-62
2022/07/29 07:18:09;;;;;;;4.63;2.50;;;19.90;99.90;;;;;;5078931;28;20048;-61
2022/07/29 07:20:35;;;;;;;4.72;2.67;;;20.00;99.90;;;;;;5079695;28;20025;-61
2022/07/29 07:23:01;;;;;;;4.55;2.40;;;20.10;99.90;;;;;;5078890;28;20020;-61
2022/07/29 07:25:27;;;;;;;4.10;2.60;;;20.20;99.90;;;;;;5062135;28;20020;-61
2022/07/29 07:27:53;;;;;;;5.97;2.45;;;20.30;99.90;;;;;;5079039;28;20045;-63
2022/07/29 07:30:19;;;;;;;8.18;2.83;;;20.20;99.90;;;;;;5078782;28;20311;-61
2022/07/29 07:32:44;;;;;;;3.85;2.10;;;20.30;99.90;;;;;;5062097;28;20062;-61
2022/07/29 07:35:11;;;;;;;4.10;2.33;;;20.40;99.90;;;;;;5079464;28;20054;-61
2022/07/29 07:37:37;;;;;;;4.18;2.78;;;20.50;99.90;;;;;;5079963;28;20028;-61
2022/07/29 07:40:04;;;;;;;3.50;2.38;;;20.60;99.90;;;;;;5045494;28;20384;-61
2022/07/29 07:42:30;;;;;;;6.70;2.90;;;20.50;99.90;;;;;;5061830;28;20086;-62
2022/07/29 07:44:56;;;;;;;5.22;2.10;;;20.40;99.90;;;;;;5061841;28;20054;-61
2022/07/29 07:47:23;;;;;;;7.20;2.83;;;20.50;99.90;;;;;;5078528;28;20331;-61
2022/07/29 07:49:50;;;;;;;3.20;2.13;;;20.60;99.90;;;;;;5077968;28;20300;-61
2022/07/29 07:52:17;;;;;;;4.80;2.55;;;20.60;99.90;;;;;;5078149;28;20036;-61
2022/07/29 07:54:44;;;;;;;5.10;2.20;;;20.60;99.90;;;;;;5079239;28;20085;-61
2022/07/29 07:57:11;;;;;;;3.85;2.20;;;20.70;99.90;;;;;;5078790;28;20087;-62
2022/07/29 07:59:37;;;;;;;4.32;2.05;;;20.80;99.90;;;;;;5079099;28;20036;-61
2022/07/29 08:02:03;;;;;;;3.72;2.17;;;20.90;99.90;;;;;;5078339;28;20032;-61
2022/07/29 08:04:29;;;;;;;3.63;2.47;;;21.00;99.90;;;;;;5078119;28;20411;-61
2022/07/29 08:06:56;;;;;;;3.60;2.10;;;21.20;99.90;;;;;;5078877;28;20028;-61
2022/07/29 08:09:23;;;;;;;4.88;2.55;;;21.40;99.90;;;;;;5077924;28;20037;-61
2022/07/29 08:11:49;;;;;;;3.90;1.90;;;21.40;99.90;;;;;;5078788;28;20021;-61
2022/07/29 08:14:14;;;;;;;4.88;2.10;;;21.40;99.90;;;;;;5078069;28;20033;-62
2022/07/29 08:16:42;;;;;;;3.33;2.10;;;21.50;99.90;;;;;;5078007;28;20107;-61
2022/07/29 08:19:07;;;;;;;3.33;1.88;;;21.60;99.90;;;;;;5078521;28;20047;-62
2022/07/29 08:21:33;;;;;;;3.35;1.63;;;21.70;99.90;;;;;;5077969;28;20029;-61
2022/07/29 08:26:44;;;;;;;4.63;2.30;;;21.90;99.90;;;;;;5077771;28;20073;-62
2022/07/29 08:29:10;;;;;;;5.25;2.20;;;22.10;99.90;;;;;;5077735;28;20071;-62
2022/07/29 08:31:36;;;;;;;2.80;1.98;;;22.30;99.90;;;;;;5077762;28;20363;-62
2022/07/29 08:34:03;;;;;;;2.35;1.60;;;22.30;99.90;;;;;;5077492;28;20024;-61
2022/07/29 08:36:29;;;;;;;2.38;1.73;;;22.40;99.90;;;;;;5077399;28;20028;-61
2022/07/29 08:38:55;;;;;;;5.32;1.52;;;22.40;99.90;;;;;;5077458;28;20029;-62
2022/07/29 08:41:21;;;;;;;4.68;1.65;;;22.50;99.90;;;;;;5077456;28;20035;-61
2022/07/29 08:43:49;;;;;;;4.43;2.00;;;22.70;99.90;;;;;;5078063;28;20304;-62
2022/07/29 08:46:16;;;;;;;3.72;2.20;;;22.90;99.90;;;;;;5060744;28;20033;-62
2022/07/29 08:48:43;;;;;;;5.05;1.58;;;23.00;99.90;;;;;;5078028;28;20415;-62
2022/07/29 08:51:14;;;;;;;6.15;2.08;;;23.10;99.90;;;;;;5078615;28;20265;-62
2022/07/29 08:53:42;;;;;;;3.83;1.80;;;23.20;99.90;;;;;;5078186;28;20029;-61
2022/07/29 08:56:13;;;;;;;2.85;1.58;;;23.20;99.90;;;;;;5077011;28;20020;-61
2022/07/29 08:58:40;;;;;;;3.85;1.50;;;23.20;99.90;;;;;;5077916;28;20029;-62
2022/07/29 09:01:07;;;;;;;3.30;1.85;;;23.20;99.90;;;;;;5077757;28;20024;-62
2022/07/29 09:03:35;;;;;;;6.68;1.60;;;23.30;99.90;;;;;;5077212;28;20036;-62
2022/07/29 09:06:03;;;;;;;5.13;1.70;;;23.60;99.90;;;;;;5076925;28;20079;-61
2022/07/29 09:08:31;;;;;;;4.68;1.65;;;23.50;99.90;;;;;;5076960;28;20048;-62
2022/07/29 09:10:58;;;;;;;2.90;1.50;;;23.50;99.90;;;;;;5077627;28;20044;-62
2022/07/29 09:13:24;;;;;;;7.13;1.70;;;23.60;99.90;;;;;;5077403;28;20438;-62
2022/07/29 09:15:50;;;;;;;5.18;1.85;;;23.60;99.90;;;;;;5077668;28;20300;-62
2022/07/29 09:18:40;;;;;;;3.97;1.50;;;23.70;99.90;;;;;;5059938;28;20181;-62
2022/07/29 09:24:10;;;;;;;5.30;1.60;;;23.70;99.90;;;;;;5077656;28;20036;-63
2022/07/29 09:26:45;;;;;;;4.00;1.52;;;23.80;99.90;;;;;;5077371;28;20308;-63
2022/07/29 09:29:16;;;;;;;5.13;1.50;;;24.00;99.90;;;;;;5077263;28;20090;-62
2022/07/29 09:31:50;;;;;;;3.35;1.30;;;24.10;99.90;;;;;;5076426;28;20127;-62
2022/07/29 09:34:28;;;;;;;3.88;1.70;;;24.20;99.90;;;;;;5077109;28;20028;-62
2022/07/29 09:36:54;;;;;;;2.70;1.40;;;24.30;99.90;;;;;;5076502;28;20354;-62
2022/07/29 09:39:32;;;;;;;4.70;1.48;;;24.30;99.90;;;;;;5043216;28;20115;-62
2022/07/29 09:42:01;;;;;;;3.80;1.30;;;24.20;99.90;;;;;;5076463;28;20068;-62
2022/07/29 09:44:44;;;;;;;2.53;1.30;;;24.30;99.90;;;;;;5076515;28;20032;-62
2022/07/29 09:47:10;;;;;;;;;;;24.60;99.90;;;;;;5076792;28;20127;-62
2022/07/29 09:49:59;;;;;;;4.00;1.35;;;24.50;99.90;;;;;;5077178;28;19940;-62
2022/07/29 09:52:26;;;;;;;2.63;1.20;;;24.50;99.90;;;;;;5044507;28;20032;-63
2022/07/29 09:54:53;;;;;;;2.50;1.30;;;24.60;99.90;;;;;;5076283;28;20060;-60
2022/07/29 09:57:25;;;;;;;3.03;1.25;;;24.80;99.90;;;;;;5076040;28;20416;-60
2022/07/29 10:00:06;;;;;;;3.47;1.10;;;24.90;99.90;;;;;;5076224;28;20029;-61
2022/07/29 10:02:40;;;;;;;2.08;1.00;;;25.00;99.90;;;;;;5077572;28;20579;-61
2022/07/29 10:05:20;;;;;;;4.32;1.33;;;24.90;99.90;;;;;;5075960;28;20094;-61
2022/07/29 10:07:54;;;;;;;2.58;1.10;;;25.10;99.90;;;;;;5076883;28;20025;-62
2022/07/29 10:10:27;;;;;;;2.03;1.13;;;25.10;99.90;;;;;;5076970;28;20074;-63
2022/07/29 10:12:56;;;;;;;3.30;1.27;;;25.20;99.90;;;;;;5077515;28;20047;-62
2022/07/29 10:15:24;;;;;;;1.63;1.00;;;25.40;99.90;;;;;;5046681;28;20042;-62
2022/07/29 10:17:51;;;;;;;2.75;1.25;;;25.60;99.90;;;;;;5080284;28;20044;-62
2022/07/29 10:20:18;;;;;;;3.22;1.00;;;25.20;99.90;;;;;;5080873;28;20040;-62
2022/07/29 10:22:43;;;;;;;3.72;1.20;;;25.10;99.90;;;;;;5080898;28;20074;-62
2022/07/29 10:25:10;;;;;;;3.15;1.25;;;25.40;99.90;;;;;;5063374;28;20388;-62
2022/07/29 10:27:36;;;;;;;10.05;1.10;;;25.50;99.90;;;;;;5080827;28;20033;-62
2022/07/29 10:30:04;;;;;;;1.80;0.98;;;25.70;99.90;;;;;;5080007;28;20066;-64
2022/07/29 10:32:51;;;;;;;3.22;1.30;;;26.00;99.90;;;;;;5081250;28;20119;-63
2022/07/29 10:35:42;;;;;;;5.43;1.10;;;25.90;99.90;;;;;;5080643;28;20415;-62
2022/07/29 10:38:15;;;;;;;4.00;1.30;;;25.90;99.90;;;;;;5079750;28;20033;-62
2022/07/29 10:43:40;;;;;;;2.30;1.08;;;26.10;99.90;;;;;;5080568;28;20020;-62
2022/07/29 10:46:07;;;;;;;2.22;1.00;;;26.40;99.90;;;;;;5080398;28;20036;-61
2022/07/29 10:48:33;;;;;;;4.95;1.50;;;26.60;99.90;;;;;;5080405;28;20096;-61
2022/07/29 10:51:03;;;;;;;3.28;1.33;;;26.80;99.90;;;;;;5079506;28;20105;-61
2022/07/29 10:53:52;;;;;;;4.03;1.48;;;26.90;99.90;;;;;;5080661;28;20036;-62
2022/07/29 10:56:30;;;;;;;2.75;1.52;;;26.90;99.90;;;;;;5062626;28;20281;-61
2022/07/29 10:59:19;;;;;;;5.05;1.60;;;27.00;99.90;;;;;;5080279;28;20366;-61
2022/07/29 11:01:52;;;;;;;3.80;1.08;;;27.20;99.90;;;;;;5080092;28;20058;-61
2022/07/29 11:04:45;;;;;;;4.28;1.15;;;27.40;99.90;;;;;;5080245;28;20020;-61
2022/07/29 11:07:12;;;;;;;5.22;1.30;;;28.20;99.90;;;;;;5080068;28;20035;-61
2022/07/29 11:09:38;;;;;;;3.05;1.30;;;30.00;99.90;;;;;;5080098;28;20094;-62
2022/07/29 11:12:37;;;;;;;3.53;1.20;;;31.20;99.60;;;;;;5079900;28;20090;-62
2022/07/29 11:15:20;;;;;;;4.35;1.63;;;32.40;95.10;;;;;;5062442;28;20051;-61
2022/07/29 11:17:52;;;;;;;2.83;1.10;;;33.00;90.40;;;;;;5080078;28;20032;-62
2022/07/29 11:20:47;;;;;;;3.13;1.60;;;33.70;86.90;;;;;;5079768;28;20112;-63
2022/07/29 11:23:20;;;;;;;3.13;1.40;;;34.70;77.50;;;;;;5079729;28;20037;-63
2022/07/29 11:26:27;;;;;;;3.92;1.38;;;34.30;75.00;;;;;;5077871;28;20066;-62
2022/07/29 11:29:24;;;;;;;4.93;1.63;;;33.90;76.90;;;;;;5080019;28;20317;-63
2022/07/29 11:31:55;;;;;;;1.55;1.23;;;34.90;72.00;;;;;;5078871;28;20033;-62
2022/07/29 11:34:24;;;;;;;3.67;1.33;;;35.90;67.40;;;;;;5078882;28;20059;-63
2022/07/29 11:37:11;;;;;;;7.13;1.77;;;36.40;62.70;;;;;;5078659;28;20096;-62
2022/07/29 11:39:38;;;;;;;2.00;1.20;;;36.10;61.60;;;;;;5079452;28;20292;-62
2022/07/29 11:42:19;;;;;;;3.58;1.27;;;35.60;60.80;;;;;;5079008;28;20048;-61
2022/07/29 11:45:05;;;;;;;5.05;1.20;;;34.40;63.30;;;;;;5078607;28;20346;-62
2022/07/29 11:47:34;;;;;;;6.43;1.58;;;34.60;63.10;;;;;;5061981;28;20304;-63
2022/07/29 11:50:02;;;;;;;5.13;1.35;;;34.50;61.90;;;;;;5079234;28;20028;-62
2022/07/29 11:52:37;;;;;;;4.97;1.55;;;34.40;63.60;;;;;;5061981;28;20041;-61
2022/07/29 11:55:06;;;;;;;4.28;1.30;;;34.20;62.40;;;;;;5079169;28;20043;-62
2022/07/29 11:57:34;;;;;;;2.78;1.50;;;34.80;61.80;;;;;;5078775;28;20095;-62
2022/07/29 12:00:00;;;;;;;3.45;1.50;;;36.10;59.40;;;;;;5061531;28;20024;-63
2022/07/29 12:02:41;;;;;;;3.20;1.60;;;36.60;57.70;;;;;;5079060;28;20036;-63
2022/07/29 12:05:09;;;;;;;6.38;1.70;;;36.40;57.80;;;;;;5078295;28;20052;-61
2022/07/29 12:07:36;;;;;;;5.57;1.48;;;36.70;56.70;;;;;;5079015;28;20037;-62
2022/07/29 12:10:04;;;;;;;4.75;1.95;;;37.50;55.80;;;;;;5078946;28;20039;-62
2022/07/29 12:12:30;;;;;;;4.03;1.58;;;37.90;54.20;;;;;;5078236;28;20071;-63
2022/07/29 12:14:56;;;;;;;5.05;1.65;;;37.30;54.70;;;;;;5078018;28;20056;-63
2022/07/29 12:17:48;;;;;;;5.20;1.60;;;37.60;54.60;;;;;;5079229;28;20048;-62
2022/07/29 12:20:23;;;;;;;4.05;1.85;;;38.00;54.30;;;;;;5078630;28;20040;-63
2022/07/29 12:22:49;;;;;;;4.00;1.83;;;38.80;52.20;;;;;;5078692;28;20096;-62
2022/07/29 12:25:16;;;;;;;6.10;2.33;;;37.50;53.40;;;;;;5061255;28;20040;-63
2022/07/29 12:27:43;;;;;;;6.60;1.90;;;37.70;52.90;;;;;;5077853;28;20043;-62
2022/07/29 12:30:11;;;;;;;4.53;1.80;;;36.90;54.50;;;;;;5078301;28;20389;-62
2022/07/29 12:32:43;;;;;;;4.07;1.67;;;36.90;55.60;;;;;;5078320;28;20033;-62
2022/07/29 12:35:15;;;;;;;3.55;2.08;;;37.80;53.10;;;;;;5078243;28;20343;-63
2022/07/29 12:37:44;;;;;;;5.90;2.33;;;38.50;50.40;;;;;;5077282;28;20417;-63
2022/07/29 12:40:12;;;;;;;3.00;1.83;;;38.00;50.70;;;;;;5060889;28;20041;-63
2022/07/29 12:42:39;;;;;;;3.22;1.90;;;38.60;50.30;;;;;;5077591;28;20301;-61
2022/07/29 12:45:05;;;;;;;4.40;2.70;;;36.70;51.50;;;;;;5078131;28;20284;-60
2022/07/29 12:47:32;;;;;;;5.93;2.13;;;36.80;51.00;;;;;;5077497;28;20036;-64
2022/07/29 12:50:14;;;;;;;3.85;1.95;;;37.00;51.10;;;;;;5078123;28;20028;-65
2022/07/29 12:52:40;;;;;;;3.17;1.80;;;38.00;49.40;;;;;;5078487;28;20041;-63
2022/07/29 12:55:07;;;;;;;5.15;2.38;;;36.10;51.60;;;;;;5077285;28;20058;-62
2022/07/29 12:57:44;;;;;;;6.22;2.78;;;37.10;50.50;;;;;;5077713;28;20056;-58
2022/07/29 13:00:13;;;;;;;4.72;2.45;;;37.00;49.80;;;;;;5077267;28;20392;-64
2022/07/29 13:02:41;;;;;;;5.03;2.13;;;37.70;49.20;;;;;;5077884;28;20028;-65
2022/07/29 13:05:08;;;;;;;3.15;1.98;;;38.10;47.70;;;;;;5077795;28;20351;-63
2022/07/29 13:07:36;;;;;;;4.07;1.70;;;38.50;46.60;;;;;;5077739;28;20032;-62
2022/07/29 13:10:16;;;;;;;2.95;1.60;;;39.10;46.60;;;;;;5060298;28;20034;-62